sensor_id;sensor_type;location;lat;lon;timestamp;P1;durP1;ratioP1;P2;durP2;ratioP2
42244;SDS011;27912;51.828;5.688;2024-01-25T00:01:38;31.73;;;4.32;;
42244;SDS011;27912;51.828;5.688;2024-01-25T00:04:04;31.33;;;3.80;;
42244;SDS011;27912;51.828;5.688;2024-01-25T00:06:29;37.45;;;5.00;;
42244;SDS011;27912;51.828;5.688;2024-01-25T00:08:55;33.33;;;4.60;;
42244;SDS011;27912;51.828;5.688;2024-01-25T00:11:20;34.47;;;4.90;;
42244;SDS011;27912;51.828;5.688;2024-01-25T00:13:46;26.40;;;3.85;;
42244;SDS011;27912;51.828;5.688;2024-01-25T00:16:12;32.08;;;3.67;;
42244;SDS011;27912;51.828;5.688;2024-01-25T00:18:38;46.95;;;3.97;;
42244;SDS011;27912;51.828;5.688;2024-01-25T00:21:04;34.83;;;3.50;;
42244;SDS011;27912;51.828;5.688;2024-01-25T00:23:29;27.65;;;4.32;;
42244;SDS011;27912;51.828;5.688;2024-01-25T00:25:55;32.88;;;4.03;;
42244;SDS011;27912;51.828;5.688;2024-01-25T00:28:24;27.33;;;3.83;;
42244;SDS011;27912;51.828;5.688;2024-01-25T00:30:50;40.95;;;4.10;;
42244;SDS011;27912;51.828;5.688;2024-01-25T00:33:15;30.20;;;3.25;;
42244;SDS011;27912;51.828;5.688;2024-01-25T00:35:41;31.70;;;4.60;;
42244;SDS011;27912;51.828;5.688;2024-01-25T00:38:07;23.00;;;3.58;;
42244;SDS011;27912;51.828;5.688;2024-01-25T00:40:33;38.10;;;3.58;;
42244;SDS011;27912;51.828;5.688;2024-01-25T00:42:58;26.10;;;3.00;;
42244;SDS011;27912;51.828;5.688;2024-01-25T00:45:24;28.17;;;3.85;;
42244;SDS011;27912;51.828;5.688;2024-01-25T00:47:50;24.08;;;3.35;;
42244;SDS011;27912;51.828;5.688;2024-01-25T00:50:16;35.53;;;4.07;;
42244;SDS011;27912;51.828;5.688;2024-01-25T00:52:45;36.78;;;4.63;;
42244;SDS011;27912;51.828;5.688;2024-01-25T00:55:11;33.97;;;4.00;;
42244;SDS011;27912;51.828;5.688;2024-01-25T00:57:37;32.95;;;4.47;;
42244;SDS011;27912;51.828;5.688;2024-01-25T01:00:03;34.63;;;4.35;;
42244;SDS011;27912;51.828;5.688;2024-01-25T01:02:30;30.80;;;3.13;;
42244;SDS011;27912;51.828;5.688;2024-01-25T01:05:01;31.92;;;3.67;;
42244;SDS011;27912;51.828;5.688;2024-01-25T01:07:27;33.58;;;3.60;;
42244;SDS011;27912;51.828;5.688;2024-01-25T01:09:53;24.15;;;3.10;;
42244;SDS011;27912;51.828;5.688;2024-01-25T01:12:18;29.13;;;3.65;;
42244;SDS011;27912;51.828;5.688;2024-01-25T01:14:44;39.67;;;3.85;;
42244;SDS011;27912;51.828;5.688;2024-01-25T01:17:10;31.85;;;2.92;;
42244;SDS011;27912;51.828;5.688;2024-01-25T01:19:35;40.60;;;4.30;;
42244;SDS011;27912;51.828;5.688;2024-01-25T01:22:01;38.25;;;4.85;;
42244;SDS011;27912;51.828;5.688;2024-01-25T01:24:26;42.95;;;4.07;;
42244;SDS011;27912;51.828;5.688;2024-01-25T01:26:52;32.97;;;4.50;;
42244;SDS011;27912;51.828;5.688;2024-01-25T01:29:17;24.45;;;2.47;;
42244;SDS011;27912;51.828;5.688;2024-01-25T01:31:43;42.13;;;3.55;;
42244;SDS011;27912;51.828;5.688;2024-01-25T01:34:09;28.85;;;3.55;;
42244;SDS011;27912;51.828;5.688;2024-01-25T01:36:35;29.95;;;3.53;;
42244;SDS011;27912;51.828;5.688;2024-01-25T01:39:00;28.08;;;4.70;;
42244;SDS011;27912;51.828;5.688;2024-01-25T01:41:26;36.15;;;3.00;;
42244;SDS011;27912;51.828;5.688;2024-01-25T01:43:52;33.25;;;3.60;;
42244;SDS011;27912;51.828;5.688;2024-01-25T01:46:29;30.27;;;3.30;;
42244;SDS011;27912;51.828;5.688;2024-01-25T01:48:56;35.72;;;3.30;;
42244;SDS011;27912;51.828;5.688;2024-01-25T01:51:22;33.58;;;2.97;;
42244;SDS011;27912;51.828;5.688;2024-01-25T01:53:47;23.88;;;2.83;;
42244;SDS011;27912;51.828;5.688;2024-01-25T01:56:14;24.67;;;3.05;;
42244;SDS011;27912;51.828;5.688;2024-01-25T01:58:40;33.83;;;2.92;;
42244;SDS011;27912;51.828;5.688;2024-01-25T02:01:07;33.60;;;3.75;;
42244;SDS011;27912;51.828;5.688;2024-01-25T02:03:33;34.97;;;3.17;;
42244;SDS011;27912;51.828;5.688;2024-01-25T02:05:58;33.28;;;3.22;;
42244;SDS011;27912;51.828;5.688;2024-01-25T02:08:28;30.85;;;3.72;;
42244;SDS011;27912;51.828;5.688;2024-01-25T02:10:54;24.17;;;3.00;;
42244;SDS011;27912;51.828;5.688;2024-01-25T02:13:20;30.38;;;4.05;;
42244;SDS011;27912;51.828;5.688;2024-01-25T02:15:46;33.75;;;3.80;;
42244;SDS011;27912;51.828;5.688;2024-01-25T02:18:12;34.72;;;2.75;;
42244;SDS011;27912;51.828;5.688;2024-01-25T02:20:38;28.77;;;2.88;;
42244;SDS011;27912;51.828;5.688;2024-01-25T02:23:03;30.13;;;4.38;;
42244;SDS011;27912;51.828;5.688;2024-01-25T02:25:29;37.95;;;3.03;;
42244;SDS011;27912;51.828;5.688;2024-01-25T02:27:54;31.98;;;3.38;;
42244;SDS011;27912;51.828;5.688;2024-01-25T02:30:20;34.38;;;3.45;;
42244;SDS011;27912;51.828;5.688;2024-01-25T02:32:46;34.08;;;4.38;;
42244;SDS011;27912;51.828;5.688;2024-01-25T02:35:11;30.17;;;4.43;;
42244;SDS011;27912;51.828;5.688;2024-01-25T02:37:37;24.17;;;3.38;;
42244;SDS011;27912;51.828;5.688;2024-01-25T02:40:03;26.98;;;2.55;;
42244;SDS011;27912;51.828;5.688;2024-01-25T02:42:29;26.98;;;2.58;;
42244;SDS011;27912;51.828;5.688;2024-01-25T02:44:55;44.80;;;4.63;;
42244;SDS011;27912;51.828;5.688;2024-01-25T02:47:20;22.98;;;2.22;;
42244;SDS011;27912;51.828;5.688;2024-01-25T02:49:46;40.28;;;3.13;;
42244;SDS011;27912;51.828;5.688;2024-01-25T02:52:11;29.88;;;3.83;;
42244;SDS011;27912;51.828;5.688;2024-01-25T02:54:37;31.77;;;3.58;;
42244;SDS011;27912;51.828;5.688;2024-01-25T02:57:03;39.47;;;5.15;;
42244;SDS011;27912;51.828;5.688;2024-01-25T02:59:29;24.40;;;2.83;;
42244;SDS011;27912;51.828;5.688;2024-01-25T03:01:55;35.70;;;5.05;;
42244;SDS011;27912;51.828;5.688;2024-01-25T03:04:20;31.35;;;3.50;;
42244;SDS011;27912;51.828;5.688;2024-01-25T03:06:46;31.60;;;4.25;;
42244;SDS011;27912;51.828;5.688;2024-01-25T03:09:11;26.08;;;2.95;;
42244;SDS011;27912;51.828;5.688;2024-01-25T03:11:38;33.25;;;3.83;;
42244;SDS011;27912;51.828;5.688;2024-01-25T03:14:03;27.70;;;2.97;;
42244;SDS011;27912;51.828;5.688;2024-01-25T03:16:29;30.00;;;3.38;;
42244;SDS011;27912;51.828;5.688;2024-01-25T03:18:54;33.03;;;3.83;;
42244;SDS011;27912;51.828;5.688;2024-01-25T03:21:20;32.55;;;3.20;;
42244;SDS011;27912;51.828;5.688;2024-01-25T03:23:45;24.80;;;2.67;;
42244;SDS011;27912;51.828;5.688;2024-01-25T03:26:11;34.95;;;5.35;;
42244;SDS011;27912;51.828;5.688;2024-01-25T03:28:37;36.53;;;3.78;;
42244;SDS011;27912;51.828;5.688;2024-01-25T03:31:04;34.63;;;4.18;;
42244;SDS011;27912;51.828;5.688;2024-01-25T03:33:29;24.45;;;3.30;;
42244;SDS011;27912;51.828;5.688;2024-01-25T03:35:57;33.83;;;3.42;;
42244;SDS011;27912;51.828;5.688;2024-01-25T03:38:29;25.90;;;3.47;;
42244;SDS011;27912;51.828;5.688;2024-01-25T03:40:55;30.00;;;3.05;;
42244;SDS011;27912;51.828;5.688;2024-01-25T03:43:27;28.25;;;3.45;;
42244;SDS011;27912;51.828;5.688;2024-01-25T03:45:53;27.05;;;3.03;;
42244;SDS011;27912;51.828;5.688;2024-01-25T03:48:18;37.92;;;4.55;;
42244;SDS011;27912;51.828;5.688;2024-01-25T03:50:44;30.17;;;3.88;;
42244;SDS011;27912;51.828;5.688;2024-01-25T03:53:10;31.75;;;3.13;;
42244;SDS011;27912;51.828;5.688;2024-01-25T03:55:35;42.15;;;4.20;;
42244;SDS011;27912;51.828;5.688;2024-01-25T03:58:01;31.90;;;3.92;;
42244;SDS011;27912;51.828;5.688;2024-01-25T04:00:26;28.40;;;4.78;;
42244;SDS011;27912;51.828;5.688;2024-01-25T04:02:52;31.02;;;3.22;;
42244;SDS011;27912;51.828;5.688;2024-01-25T04:05:17;28.70;;;3.58;;
42244;SDS011;27912;51.828;5.688;2024-01-25T04:07:43;28.17;;;3.60;;
42244;SDS011;27912;51.828;5.688;2024-01-25T04:10:09;27.75;;;3.17;;
42244;SDS011;27912;51.828;5.688;2024-01-25T04:12:34;30.85;;;3.53;;
42244;SDS011;27912;51.828;5.688;2024-01-25T04:15:00;35.63;;;3.75;;
42244;SDS011;27912;51.828;5.688;2024-01-25T04:17:26;30.88;;;3.28;;
42244;SDS011;27912;51.828;5.688;2024-01-25T04:19:51;24.30;;;3.13;;
42244;SDS011;27912;51.828;5.688;2024-01-25T04:22:17;30.77;;;2.47;;
42244;SDS011;27912;51.828;5.688;2024-01-25T04:24:43;32.65;;;4.05;;
42244;SDS011;27912;51.828;5.688;2024-01-25T04:27:09;37.45;;;3.92;;
42244;SDS011;27912;51.828;5.688;2024-01-25T04:29:38;26.38;;;4.18;;
42244;SDS011;27912;51.828;5.688;2024-01-25T04:32:05;28.30;;;3.17;;
42244;SDS011;27912;51.828;5.688;2024-01-25T04:34:30;36.40;;;4.00;;
42244;SDS011;27912;51.828;5.688;2024-01-25T04:36:56;23.65;;;3.15;;
42244;SDS011;27912;51.828;5.688;2024-01-25T04:39:22;39.47;;;5.43;;
42244;SDS011;27912;51.828;5.688;2024-01-25T04:41:47;29.13;;;3.53;;
42244;SDS011;27912;51.828;5.688;2024-01-25T04:44:13;38.75;;;3.72;;
42244;SDS011;27912;51.828;5.688;2024-01-25T04:46:39;30.17;;;4.43;;
42244;SDS011;27912;51.828;5.688;2024-01-25T04:49:04;37.75;;;3.63;;
42244;SDS011;27912;51.828;5.688;2024-01-25T04:51:30;30.55;;;4.22;;
42244;SDS011;27912;51.828;5.688;2024-01-25T04:53:55;30.70;;;3.00;;
42244;SDS011;27912;51.828;5.688;2024-01-25T04:56:21;25.27;;;4.18;;
42244;SDS011;27912;51.828;5.688;2024-01-25T04:58:47;40.28;;;4.13;;
42244;SDS011;27912;51.828;5.688;2024-01-25T05:01:12;40.58;;;5.07;;
42244;SDS011;27912;51.828;5.688;2024-01-25T05:03:38;40.10;;;3.65;;
42244;SDS011;27912;51.828;5.688;2024-01-25T05:06:03;34.20;;;4.47;;
42244;SDS011;27912;51.828;5.688;2024-01-25T05:08:29;29.58;;;3.85;;
42244;SDS011;27912;51.828;5.688;2024-01-25T05:10:55;28.45;;;4.82;;
42244;SDS011;27912;51.828;5.688;2024-01-25T05:13:20;36.70;;;4.65;;
42244;SDS011;27912;51.828;5.688;2024-01-25T05:15:46;34.08;;;3.63;;
42244;SDS011;27912;51.828;5.688;2024-01-25T05:18:11;37.67;;;3.70;;
42244;SDS011;27912;51.828;5.688;2024-01-25T05:20:37;34.67;;;3.60;;
42244;SDS011;27912;51.828;5.688;2024-01-25T05:23:03;32.03;;;4.07;;
42244;SDS011;27912;51.828;5.688;2024-01-25T05:25:30;42.63;;;5.85;;
42244;SDS011;27912;51.828;5.688;2024-01-25T05:27:56;40.20;;;5.72;;
42244;SDS011;27912;51.828;5.688;2024-01-25T05:30:22;30.00;;;4.43;;
42244;SDS011;27912;51.828;5.688;2024-01-25T05:32:48;33.13;;;3.47;;
42244;SDS011;27912;51.828;5.688;2024-01-25T05:35:14;36.08;;;3.88;;
42244;SDS011;27912;51.828;5.688;2024-01-25T05:37:41;33.00;;;4.53;;
42244;SDS011;27912;51.828;5.688;2024-01-25T05:40:07;47.90;;;4.03;;
42244;SDS011;27912;51.828;5.688;2024-01-25T05:42:34;38.47;;;3.35;;
42244;SDS011;27912;51.828;5.688;2024-01-25T05:45:00;35.17;;;4.95;;
42244;SDS011;27912;51.828;5.688;2024-01-25T05:47:26;36.72;;;3.83;;
42244;SDS011;27912;51.828;5.688;2024-01-25T05:49:52;38.53;;;4.47;;
42244;SDS011;27912;51.828;5.688;2024-01-25T05:52:17;34.08;;;4.97;;
42244;SDS011;27912;51.828;5.688;2024-01-25T05:54:43;43.88;;;4.53;;
42244;SDS011;27912;51.828;5.688;2024-01-25T05:57:09;39.63;;;4.65;;
42244;SDS011;27912;51.828;5.688;2024-01-25T05:59:35;46.30;;;4.93;;
42244;SDS011;27912;51.828;5.688;2024-01-25T06:02:00;41.58;;;4.72;;
42244;SDS011;27912;51.828;5.688;2024-01-25T06:04:26;35.95;;;4.20;;
42244;SDS011;27912;51.828;5.688;2024-01-25T06:06:51;40.38;;;4.10;;
42244;SDS011;27912;51.828;5.688;2024-01-25T06:09:17;22.05;;;3.65;;
42244;SDS011;27912;51.828;5.688;2024-01-25T06:11:42;40.40;;;4.03;;
42244;SDS011;27912;51.828;5.688;2024-01-25T06:14:09;38.53;;;4.63;;
42244;SDS011;27912;51.828;5.688;2024-01-25T06:16:35;34.53;;;4.43;;
42244;SDS011;27912;51.828;5.688;2024-01-25T06:19:02;38.33;;;5.30;;
42244;SDS011;27912;51.828;5.688;2024-01-25T06:21:28;32.55;;;3.88;;
42244;SDS011;27912;51.828;5.688;2024-01-25T06:23:54;29.95;;;4.47;;
42244;SDS011;27912;51.828;5.688;2024-01-25T06:26:19;35.10;;;3.72;;
42244;SDS011;27912;51.828;5.688;2024-01-25T06:28:45;48.80;;;4.60;;
42244;SDS011;27912;51.828;5.688;2024-01-25T06:31:11;39.10;;;4.05;;
42244;SDS011;27912;51.828;5.688;2024-01-25T06:33:37;31.88;;;3.97;;
42244;SDS011;27912;51.828;5.688;2024-01-25T06:36:02;31.33;;;3.47;;
42244;SDS011;27912;51.828;5.688;2024-01-25T06:38:28;31.95;;;4.15;;
42244;SDS011;27912;51.828;5.688;2024-01-25T06:40:54;34.03;;;4.00;;
42244;SDS011;27912;51.828;5.688;2024-01-25T06:43:19;32.95;;;4.50;;
42244;SDS011;27912;51.828;5.688;2024-01-25T06:45:45;32.72;;;3.70;;
42244;SDS011;27912;51.828;5.688;2024-01-25T06:48:11;36.53;;;3.10;;
42244;SDS011;27912;51.828;5.688;2024-01-25T06:50:37;41.15;;;4.95;;
42244;SDS011;27912;51.828;5.688;2024-01-25T06:53:03;43.33;;;4.38;;
42244;SDS011;27912;51.828;5.688;2024-01-25T06:55:29;33.72;;;3.67;;
42244;SDS011;27912;51.828;5.688;2024-01-25T06:57:55;27.40;;;3.03;;
42244;SDS011;27912;51.828;5.688;2024-01-25T07:00:20;44.05;;;4.75;;
42244;SDS011;27912;51.828;5.688;2024-01-25T07:02:46;36.28;;;3.95;;
42244;SDS011;27912;51.828;5.688;2024-01-25T07:05:12;29.55;;;4.35;;
42244;SDS011;27912;51.828;5.688;2024-01-25T07:07:38;43.88;;;4.90;;
42244;SDS011;27912;51.828;5.688;2024-01-25T07:10:05;36.63;;;4.53;;
42244;SDS011;27912;51.828;5.688;2024-01-25T07:12:31;38.97;;;4.38;;
42244;SDS011;27912;51.828;5.688;2024-01-25T07:14:57;32.83;;;5.72;;
42244;SDS011;27912;51.828;5.688;2024-01-25T07:17:22;36.65;;;5.63;;
42244;SDS011;27912;51.828;5.688;2024-01-25T07:19:48;29.60;;;3.63;;
42244;SDS011;27912;51.828;5.688;2024-01-25T07:22:14;34.70;;;4.00;;
42244;SDS011;27912;51.828;5.688;2024-01-25T07:24:40;53.95;;;4.88;;
42244;SDS011;27912;51.828;5.688;2024-01-25T07:27:06;43.33;;;10.93;;
42244;SDS011;27912;51.828;5.688;2024-01-25T07:29:32;32.22;;;5.00;;
42244;SDS011;27912;51.828;5.688;2024-01-25T07:31:57;30.38;;;4.60;;
42244;SDS011;27912;51.828;5.688;2024-01-25T07:34:23;48.10;;;4.43;;
42244;SDS011;27912;51.828;5.688;2024-01-25T07:36:49;28.02;;;4.63;;
42244;SDS011;27912;51.828;5.688;2024-01-25T07:39:14;36.10;;;4.93;;
42244;SDS011;27912;51.828;5.688;2024-01-25T07:41:40;42.97;;;4.85;;
42244;SDS011;27912;51.828;5.688;2024-01-25T07:44:06;28.08;;;4.20;;
42244;SDS011;27912;51.828;5.688;2024-01-25T07:46:32;40.78;;;4.78;;
42244;SDS011;27912;51.828;5.688;2024-01-25T07:48:57;37.38;;;4.20;;
42244;SDS011;27912;51.828;5.688;2024-01-25T07:51:23;34.13;;;4.35;;
42244;SDS011;27912;51.828;5.688;2024-01-25T07:53:53;40.72;;;4.63;;
42244;SDS011;27912;51.828;5.688;2024-01-25T07:56:19;35.10;;;4.10;;
42244;SDS011;27912;51.828;5.688;2024-01-25T07:58:47;35.72;;;3.95;;
42244;SDS011;27912;51.828;5.688;2024-01-25T08:01:19;37.90;;;6.47;;
42244;SDS011;27912;51.828;5.688;2024-01-25T08:03:46;49.03;;;6.22;;
42244;SDS011;27912;51.828;5.688;2024-01-25T08:06:12;36.72;;;5.10;;
42244;SDS011;27912;51.828;5.688;2024-01-25T08:08:39;39.42;;;5.68;;
42244;SDS011;27912;51.828;5.688;2024-01-25T08:11:04;46.67;;;5.35;;
42244;SDS011;27912;51.828;5.688;2024-01-25T08:13:30;36.03;;;4.53;;
42244;SDS011;27912;51.828;5.688;2024-01-25T08:15:56;43.50;;;5.47;;
42244;SDS011;27912;51.828;5.688;2024-01-25T08:18:23;37.97;;;5.10;;
42244;SDS011;27912;51.828;5.688;2024-01-25T08:20:49;38.63;;;4.70;;
42244;SDS011;27912;51.828;5.688;2024-01-25T08:23:18;38.92;;;5.72;;
42244;SDS011;27912;51.828;5.688;2024-01-25T08:25:44;41.25;;;6.95;;
42244;SDS011;27912;51.828;5.688;2024-01-25T08:28:10;32.28;;;6.05;;
42244;SDS011;27912;51.828;5.688;2024-01-25T08:30:35;32.33;;;5.47;;
42244;SDS011;27912;51.828;5.688;2024-01-25T08:33:01;45.13;;;6.80;;
42244;SDS011;27912;51.828;5.688;2024-01-25T08:35:26;40.28;;;6.25;;
42244;SDS011;27912;51.828;5.688;2024-01-25T08:37:52;45.88;;;5.47;;
42244;SDS011;27912;51.828;5.688;2024-01-25T08:40:18;31.75;;;5.50;;
42244;SDS011;27912;51.828;5.688;2024-01-25T08:42:43;25.83;;;4.90;;
42244;SDS011;27912;51.828;5.688;2024-01-25T08:45:09;49.42;;;5.30;;
42244;SDS011;27912;51.828;5.688;2024-01-25T08:47:35;46.25;;;5.18;;
42244;SDS011;27912;51.828;5.688;2024-01-25T08:50:01;47.67;;;7.82;;
42244;SDS011;27912;51.828;5.688;2024-01-25T08:52:28;39.50;;;6.85;;
42244;SDS011;27912;51.828;5.688;2024-01-25T08:54:54;46.97;;;6.28;;
42244;SDS011;27912;51.828;5.688;2024-01-25T08:57:20;38.90;;;5.95;;
42244;SDS011;27912;51.828;5.688;2024-01-25T08:59:45;46.60;;;8.20;;
42244;SDS011;27912;51.828;5.688;2024-01-25T09:02:12;50.35;;;8.70;;
42244;SDS011;27912;51.828;5.688;2024-01-25T09:04:37;49.22;;;7.35;;
42244;SDS011;27912;51.828;5.688;2024-01-25T09:07:05;37.65;;;6.40;;
42244;SDS011;27912;51.828;5.688;2024-01-25T09:09:30;49.08;;;7.90;;
42244;SDS011;27912;51.828;5.688;2024-01-25T09:11:56;41.95;;;7.10;;
42244;SDS011;27912;51.828;5.688;2024-01-25T09:14:22;41.17;;;7.00;;
42244;SDS011;27912;51.828;5.688;2024-01-25T09:16:48;46.22;;;6.13;;
42244;SDS011;27912;51.828;5.688;2024-01-25T09:19:13;37.03;;;6.40;;
42244;SDS011;27912;51.828;5.688;2024-01-25T09:21:39;37.42;;;7.93;;
42244;SDS011;27912;51.828;5.688;2024-01-25T09:24:05;37.50;;;6.38;;
42244;SDS011;27912;51.828;5.688;2024-01-25T09:26:31;37.05;;;6.85;;
42244;SDS011;27912;51.828;5.688;2024-01-25T09:28:57;43.67;;;8.38;;
42244;SDS011;27912;51.828;5.688;2024-01-25T09:31:22;38.13;;;8.20;;
42244;SDS011;27912;51.828;5.688;2024-01-25T09:33:48;55.25;;;8.32;;
42244;SDS011;27912;51.828;5.688;2024-01-25T09:36:14;39.60;;;8.23;;
42244;SDS011;27912;51.828;5.688;2024-01-25T09:38:41;32.92;;;7.05;;
42244;SDS011;27912;51.828;5.688;2024-01-25T09:41:07;31.30;;;7.50;;
42244;SDS011;27912;51.828;5.688;2024-01-25T09:43:33;48.15;;;8.82;;
42244;SDS011;27912;51.828;5.688;2024-01-25T09:46:00;41.03;;;7.45;;
42244;SDS011;27912;51.828;5.688;2024-01-25T09:48:26;52.85;;;8.32;;
42244;SDS011;27912;51.828;5.688;2024-01-25T09:50:52;41.60;;;9.57;;
42244;SDS011;27912;51.828;5.688;2024-01-25T09:53:21;36.97;;;7.07;;
42244;SDS011;27912;51.828;5.688;2024-01-25T09:55:51;52.20;;;8.70;;
42244;SDS011;27912;51.828;5.688;2024-01-25T09:58:31;48.70;;;8.75;;
42244;SDS011;27912;51.828;5.688;2024-01-25T10:01:03;36.55;;;8.50;;
42244;SDS011;27912;51.828;5.688;2024-01-25T10:03:28;43.97;;;9.73;;
42244;SDS011;27912;51.828;5.688;2024-01-25T10:05:55;43.92;;;9.35;;
42244;SDS011;27912;51.828;5.688;2024-01-25T10:08:21;33.85;;;8.25;;
42244;SDS011;27912;51.828;5.688;2024-01-25T10:10:48;44.72;;;8.90;;
42244;SDS011;27912;51.828;5.688;2024-01-25T10:13:14;42.15;;;8.82;;
42244;SDS011;27912;51.828;5.688;2024-01-25T10:15:40;47.50;;;9.93;;
42244;SDS011;27912;51.828;5.688;2024-01-25T10:18:07;42.92;;;9.85;;
42244;SDS011;27912;51.828;5.688;2024-01-25T10:20:38;42.30;;;8.48;;
42244;SDS011;27912;51.828;5.688;2024-01-25T10:23:05;43.53;;;9.50;;
42244;SDS011;27912;51.828;5.688;2024-01-25T10:25:33;35.03;;;9.02;;
42244;SDS011;27912;51.828;5.688;2024-01-25T10:27:59;45.42;;;9.35;;
42244;SDS011;27912;51.828;5.688;2024-01-25T10:30:25;41.75;;;10.00;;
42244;SDS011;27912;51.828;5.688;2024-01-25T10:32:52;34.03;;;8.73;;
42244;SDS011;27912;51.828;5.688;2024-01-25T10:35:18;47.53;;;10.45;;
42244;SDS011;27912;51.828;5.688;2024-01-25T10:37:45;44.92;;;10.27;;
42244;SDS011;27912;51.828;5.688;2024-01-25T10:40:11;37.17;;;10.25;;
42244;SDS011;27912;51.828;5.688;2024-01-25T10:42:38;46.88;;;9.98;;
42244;SDS011;27912;51.828;5.688;2024-01-25T10:45:04;43.47;;;9.98;;
42244;SDS011;27912;51.828;5.688;2024-01-25T10:47:30;42.88;;;9.70;;
42244;SDS011;27912;51.828;5.688;2024-01-25T10:50:00;43.33;;;9.60;;
42244;SDS011;27912;51.828;5.688;2024-01-25T10:52:27;40.58;;;9.50;;
42244;SDS011;27912;51.828;5.688;2024-01-25T10:54:54;38.03;;;10.10;;
42244;SDS011;27912;51.828;5.688;2024-01-25T10:57:20;48.75;;;11.57;;
42244;SDS011;27912;51.828;5.688;2024-01-25T10:59:45;44.40;;;10.90;;
42244;SDS011;27912;51.828;5.688;2024-01-25T11:02:11;40.60;;;11.15;;
42244;SDS011;27912;51.828;5.688;2024-01-25T11:04:37;34.90;;;10.35;;
42244;SDS011;27912;51.828;5.688;2024-01-25T11:07:06;38.35;;;9.95;;
42244;SDS011;27912;51.828;5.688;2024-01-25T11:09:36;48.47;;;9.65;;
42244;SDS011;27912;51.828;5.688;2024-01-25T11:12:10;43.33;;;9.52;;
42244;SDS011;27912;51.828;5.688;2024-01-25T11:14:37;37.17;;;10.20;;
42244;SDS011;27912;51.828;5.688;2024-01-25T11:17:19;40.15;;;10.27;;
42244;SDS011;27912;51.828;5.688;2024-01-25T11:19:47;46.15;;;8.45;;
42244;SDS011;27912;51.828;5.688;2024-01-25T11:22:14;45.85;;;10.30;;
42244;SDS011;27912;51.828;5.688;2024-01-25T11:24:40;30.67;;;8.48;;
42244;SDS011;27912;51.828;5.688;2024-01-25T11:27:07;49.28;;;10.27;;
42244;SDS011;27912;51.828;5.688;2024-01-25T11:29:35;44.95;;;10.15;;
42244;SDS011;27912;51.828;5.688;2024-01-25T11:32:00;44.80;;;9.48;;
42244;SDS011;27912;51.828;5.688;2024-01-25T11:34:29;40.78;;;10.18;;
42244;SDS011;27912;51.828;5.688;2024-01-25T11:36:56;39.97;;;9.65;;
42244;SDS011;27912;51.828;5.688;2024-01-25T11:39:23;36.78;;;8.43;;
42244;SDS011;27912;51.828;5.688;2024-01-25T11:41:50;40.70;;;9.95;;
42244;SDS011;27912;51.828;5.688;2024-01-25T11:44:16;38.20;;;9.68;;
42244;SDS011;27912;51.828;5.688;2024-01-25T11:46:42;40.00;;;10.50;;
42244;SDS011;27912;51.828;5.688;2024-01-25T11:49:08;38.00;;;10.43;;
42244;SDS011;27912;51.828;5.688;2024-01-25T11:51:34;39.42;;;9.93;;
42244;SDS011;27912;51.828;5.688;2024-01-25T11:54:00;47.65;;;11.38;;
42244;SDS011;27912;51.828;5.688;2024-01-25T11:56:30;40.50;;;11.45;;
42244;SDS011;27912;51.828;5.688;2024-01-25T11:58:58;43.45;;;10.50;;
42244;SDS011;27912;51.828;5.688;2024-01-25T12:01:24;42.85;;;10.23;;
42244;SDS011;27912;51.828;5.688;2024-01-25T12:03:50;45.80;;;10.50;;
42244;SDS011;27912;51.828;5.688;2024-01-25T12:06:16;33.30;;;10.65;;
42244;SDS011;27912;51.828;5.688;2024-01-25T12:08:44;46.60;;;11.55;;
42244;SDS011;27912;51.828;5.688;2024-01-25T12:11:11;40.53;;;11.25;;
42244;SDS011;27912;51.828;5.688;2024-01-25T12:13:43;43.10;;;10.55;;
42244;SDS011;27912;51.828;5.688;2024-01-25T12:16:09;48.13;;;11.05;;
42244;SDS011;27912;51.828;5.688;2024-01-25T12:18:36;46.10;;;12.10;;
42244;SDS011;27912;51.828;5.688;2024-01-25T12:21:03;43.80;;;10.75;;
42244;SDS011;27912;51.828;5.688;2024-01-25T12:23:38;40.53;;;11.32;;
42244;SDS011;27912;51.828;5.688;2024-01-25T12:26:08;31.52;;;9.25;;
42244;SDS011;27912;51.828;5.688;2024-01-25T12:28:36;39.50;;;11.38;;
42244;SDS011;27912;51.828;5.688;2024-01-25T12:31:05;47.65;;;11.95;;
42244;SDS011;27912;51.828;5.688;2024-01-25T12:33:31;37.35;;;10.80;;
42244;SDS011;27912;51.828;5.688;2024-01-25T12:35:58;31.98;;;10.15;;
42244;SDS011;27912;51.828;5.688;2024-01-25T12:38:24;48.47;;;10.93;;
42244;SDS011;27912;51.828;5.688;2024-01-25T12:40:51;48.53;;;12.35;;
42244;SDS011;27912;51.828;5.688;2024-01-25T12:43:17;43.95;;;10.80;;
42244;SDS011;27912;51.828;5.688;2024-01-25T12:45:44;51.67;;;12.63;;
42244;SDS011;27912;51.828;5.688;2024-01-25T12:48:10;37.97;;;11.85;;
42244;SDS011;27912;51.828;5.688;2024-01-25T12:50:36;38.22;;;10.38;;
42244;SDS011;27912;51.828;5.688;2024-01-25T12:53:02;45.60;;;11.05;;
42244;SDS011;27912;51.828;5.688;2024-01-25T12:55:29;36.10;;;10.25;;
42244;SDS011;27912;51.828;5.688;2024-01-25T12:57:55;42.70;;;12.43;;
42244;SDS011;27912;51.828;5.688;2024-01-25T13:00:22;36.42;;;11.23;;
42244;SDS011;27912;51.828;5.688;2024-01-25T13:02:47;43.97;;;12.07;;
42244;SDS011;27912;51.828;5.688;2024-01-25T13:05:14;44.45;;;13.00;;
42244;SDS011;27912;51.828;5.688;2024-01-25T13:07:39;55.47;;;13.68;;
42244;SDS011;27912;51.828;5.688;2024-01-25T13:10:05;37.30;;;13.93;;
42244;SDS011;27912;51.828;5.688;2024-01-25T13:12:31;44.85;;;13.88;;
42244;SDS011;27912;51.828;5.688;2024-01-25T13:14:57;47.15;;;14.30;;
42244;SDS011;27912;51.828;5.688;2024-01-25T13:17:22;41.50;;;13.82;;
42244;SDS011;27912;51.828;5.688;2024-01-25T13:19:50;45.10;;;13.40;;
42244;SDS011;27912;51.828;5.688;2024-01-25T13:22:16;49.63;;;15.00;;
42244;SDS011;27912;51.828;5.688;2024-01-25T13:24:52;41.58;;;14.00;;
42244;SDS011;27912;51.828;5.688;2024-01-25T13:27:18;48.88;;;15.43;;
42244;SDS011;27912;51.828;5.688;2024-01-25T13:29:43;47.78;;;16.00;;
42244;SDS011;27912;51.828;5.688;2024-01-25T13:32:09;54.42;;;17.30;;
42244;SDS011;27912;51.828;5.688;2024-01-25T13:34:36;41.45;;;14.20;;
42244;SDS011;27912;51.828;5.688;2024-01-25T13:37:02;52.00;;;16.33;;
42244;SDS011;27912;51.828;5.688;2024-01-25T13:39:27;59.72;;;18.20;;
42244;SDS011;27912;51.828;5.688;2024-01-25T13:41:54;54.83;;;16.50;;
42244;SDS011;27912;51.828;5.688;2024-01-25T13:44:21;49.90;;;17.20;;
42244;SDS011;27912;51.828;5.688;2024-01-25T13:46:47;55.97;;;18.67;;
42244;SDS011;27912;51.828;5.688;2024-01-25T13:49:13;56.60;;;18.38;;
42244;SDS011;27912;51.828;5.688;2024-01-25T13:51:38;41.60;;;15.30;;
42244;SDS011;27912;51.828;5.688;2024-01-25T13:54:04;52.47;;;19.38;;
42244;SDS011;27912;51.828;5.688;2024-01-25T13:56:29;46.72;;;17.30;;
42244;SDS011;27912;51.828;5.688;2024-01-25T13:58:55;54.05;;;18.20;;
42244;SDS011;27912;51.828;5.688;2024-01-25T14:01:20;53.50;;;20.40;;
42244;SDS011;27912;51.828;5.688;2024-01-25T14:03:46;49.90;;;18.55;;
42244;SDS011;27912;51.828;5.688;2024-01-25T14:06:12;56.83;;;19.23;;
42244;SDS011;27912;51.828;5.688;2024-01-25T14:08:37;43.83;;;18.40;;
42244;SDS011;27912;51.828;5.688;2024-01-25T14:11:03;51.33;;;19.00;;
42244;SDS011;27912;51.828;5.688;2024-01-25T14:13:30;54.15;;;18.45;;
42244;SDS011;27912;51.828;5.688;2024-01-25T14:15:57;48.58;;;16.40;;
42244;SDS011;27912;51.828;5.688;2024-01-25T14:18:23;44.33;;;14.38;;
42244;SDS011;27912;51.828;5.688;2024-01-25T14:20:51;38.08;;;13.55;;
42244;SDS011;27912;51.828;5.688;2024-01-25T14:23:17;46.53;;;12.93;;
42244;SDS011;27912;51.828;5.688;2024-01-25T14:25:42;44.10;;;13.57;;